Time;durP1;ratioP1;P1;durP2;ratioP2;P2;SDS_P1;SDS_P2;PMS_P1;PMS_P2;Temp;Humidity;BMP_temperature;BMP_pressure;BME280_temperature;BME280_humidity;BME280_pressure;Samples;Min_cycle;Max_cycle;Signal;HPM_P1;HPM_P2
2021/12/25 00:00:11;;;;;;;2.17;1.00;;;1.60;99.90;0.50;99638.00;;;;5037105;27;108057;-71
2021/12/25 00:02:38;;;;;;;1.00;0.90;;;0.80;99.90;0.50;99634.00;;;;5039361;27;83181;-68
2021/12/25 00:05:05;;;;;;;1.37;0.93;;;0.80;99.90;0.50;99650.00;;;;5029637;27;83610;-69
2021/12/25 00:07:31;;;;;;;0.70;0.70;;;0.90;99.90;0.50;99647.00;;;;5041187;27;91459;-68
2021/12/25 00:09:58;;;;;;;1.57;1.03;;;0.90;99.90;0.50;99654.00;;;;5039296;27;94732;-69
2021/12/25 00:12:24;;;;;;;0.50;0.50;;;0.80;99.90;0.50;99652.00;;;;5059784;27;85131;-69
2021/12/25 00:14:50;;;;;;;1.10;0.90;;;0.80;99.90;0.50;99669.00;;;;5052965;27;84551;-69
2021/12/25 00:17:16;;;;;;;1.37;0.67;;;1.60;99.90;0.40;99668.00;;;;5061144;27;97131;-70
2021/12/25 00:19:43;;;;;;;0.73;0.73;;;0.70;99.90;0.30;99683.00;;;;5060117;27;109516;-70
2021/12/25 00:22:09;;;;;;;5.00;0.70;;;0.70;99.90;0.20;99682.00;;;;5061665;27;84046;-70
2021/12/25 00:24:41;;;;;;;0.53;0.53;;;0.60;99.90;0.10;99667.00;;;;5038423;27;98596;-70
2021/12/25 00:27:36;;;;;;;0.67;0.60;;;0.50;99.90;0.00;99680.00;;;;5040523;27;82514;-70
2021/12/25 00:35:02;;;;;;;0.10;0.10;;;0.10;99.90;-0.30;99698.00;;;;5045255;27;83053;-71
2021/12/25 00:37:27;;;;;;;0.30;0.30;;;0.10;99.90;-0.40;99696.00;;;;5057983;27;96238;-71
2021/12/25 00:39:56;;;;;;;3.30;0.97;;;0.20;99.90;-0.40;99702.00;;;;5060313;27;108471;-72
2021/12/25 00:42:22;;;;;;;0.50;0.47;;;-0.10;99.90;-0.50;99706.00;;;;5060705;27;83713;-71
2021/12/25 00:44:48;;;;;;;0.40;0.30;;;-0.10;99.90;-0.60;99711.00;;;;5040585;27;83772;-70
2021/12/25 00:47:14;;;;;;;0.67;0.27;;;-0.20;99.90;-0.60;99712.00;;;;5040283;27;82765;-71
2021/12/25 00:49:40;;;;;;;0.20;0.20;;;-0.30;99.90;-0.70;99712.00;;;;5050666;27;107487;-72
2021/12/25 00:52:05;;;;;;;0.30;0.30;;;-0.50;99.90;-0.70;99731.00;;;;5049829;27;113417;-70
2021/12/25 00:54:32;;;;;;;0.50;0.40;;;-0.40;99.90;-0.80;99727.00;;;;5031841;27;111773;-70
2021/12/25 00:56:57;;;;;;;1.00;0.47;;;-0.60;99.90;-0.90;99724.00;;;;5040562;27;82840;-71
2021/12/25 00:59:23;;;;;;;0.93;0.53;;;-0.50;99.90;-0.90;99749.00;;;;5039692;27;109078;-71
2021/12/25 01:01:49;;;;;;;0.40;0.40;;;-0.50;99.90;-0.90;99752.00;;;;5040865;27;111874;-71
2021/12/25 01:04:15;;;;;;;0.47;0.20;;;-0.60;99.90;-1.00;99763.00;;;;5031358;27;84774;-71
2021/12/25 01:06:41;;;;;;;0.83;0.40;;;0.30;99.90;-1.00;99770.00;;;;5040011;27;95993;-71
2021/12/25 01:09:08;;;;;;;0.23;0.23;;;-0.70;99.90;-1.00;99770.00;;;;5040406;27;82876;-70
2021/12/25 01:11:36;;;;;;;0.57;0.30;;;-0.80;99.90;-1.10;99784.00;;;;5040771;27;82669;-71
2021/12/25 01:14:19;;;;;;;0.30;0.30;;;-0.80;99.90;-1.10;99782.00;;;;5031592;27;84145;-70
2021/12/25 01:20:03;;;;;;;0.37;0.33;;;-0.90;99.90;-1.30;99789.00;;;;5052801;27;81898;-70
2021/12/25 01:30:03;;;;;;;0.40;0.40;;;-1.10;99.90;-1.40;99807.00;;;;5029106;27;82614;-70
2021/12/25 01:35:40;;;;;;;0.33;0.30;;;-1.20;99.90;-1.40;99798.00;;;;5031472;27;82685;-69
2021/12/25 01:48:38;;;;;;;0.17;0.17;;;-0.90;99.90;-1.70;99825.00;;;;5058289;27;82731;-72
2021/12/25 01:51:04;;;;;;;0.40;0.40;;;-1.30;99.90;-1.80;99819.00;;;;5059599;27;82780;-69
2021/12/25 01:53:30;;;;;;;1.53;0.83;;;-1.30;99.90;-1.80;99829.00;;;;5053830;27;83427;-70
2021/12/25 01:55:59;;;;;;;0.27;0.27;;;-1.40;99.90;-1.80;99836.00;;;;5058129;27;82851;-70
2021/12/25 01:58:25;;;;;;;0.37;0.37;;;-1.50;99.90;-1.90;99828.00;;;;5059325;27;82782;-70
2021/12/25 02:00:55;;;;;;;0.40;0.40;;;-1.50;99.90;-1.90;99823.00;;;;5041458;27;82720;-69
2021/12/25 02:03:26;;;;;;;0.43;0.37;;;-1.50;99.90;-1.90;99827.00;;;;5055189;27;83661;-70
2021/12/25 02:05:57;;;;;;;2.83;0.50;;;-1.50;99.90;-2.00;99831.00;;;;5042105;27;83062;-71
2021/12/25 02:08:24;;;;;;;0.87;0.37;;;-0.60;99.90;-2.00;99839.00;;;;5039467;27;83160;-70
2021/12/25 02:10:50;;;;;;;3.93;0.30;;;-1.60;99.90;-2.00;99835.00;;;;5049289;27;94819;-70
2021/12/25 02:13:17;;;;;;;0.17;0.17;;;-1.60;99.90;-2.00;99839.00;;;;5023602;27;110628;-69
2021/12/25 02:15:46;;;;;;;0.20;0.20;;;-1.70;99.90;-2.00;99838.00;;;;5035592;27;83620;-69
2021/12/25 02:18:19;;;;;;;0.43;0.37;;;-1.70;99.90;-2.10;99842.00;;;;5038993;27;83774;-69
2021/12/25 02:20:53;;;;;;;0.20;0.20;;;-1.70;99.90;-2.10;99845.00;;;;5040041;27;83126;-71
2021/12/25 02:23:23;;;;;;;1.60;0.40;;;-1.70;99.90;-2.10;99846.00;;;;5034673;27;83996;-71
2021/12/25 02:25:54;;;;;;;0.40;0.40;;;-1.70;99.90;-2.20;99852.00;;;;5035125;27;82860;-70
2021/12/25 02:28:21;;;;;;;0.67;0.60;;;-1.80;99.90;-2.20;99855.00;;;;5020423;27;82749;-70
2021/12/25 02:30:50;;;;;;;0.27;0.27;;;-1.80;99.90;-2.20;99852.00;;;;5046682;27;93111;-69
2021/12/25 02:33:16;;;;;;;0.20;0.20;;;-1.90;99.90;-2.30;99855.00;;;;5054741;27;83530;-70
2021/12/25 02:35:43;;;;;;;0.63;0.63;;;-1.00;99.90;-2.30;99859.00;;;;5035214;27;82176;-69
2021/12/25 02:38:09;;;;;;;0.40;0.40;;;-1.90;99.90;-2.30;99857.00;;;;5039638;27;82826;-69
2021/12/25 02:40:35;;;;;;;0.63;0.20;;;-1.90;99.90;-2.30;99864.00;;;;5058295;27;87481;-69
2021/12/25 02:43:00;;;;;;;0.47;0.47;;;-1.90;99.90;-2.40;99864.00;;;;5047304;27;91584;-70
2021/12/25 02:45:27;;;;;;;1.53;0.67;;;-2.00;99.90;-2.40;99865.00;;;;5031680;27;111991;-69
2021/12/25 02:47:56;;;;;;;0.40;0.40;;;-2.00;99.90;-2.50;99848.00;;;;5038754;27;82566;-70
2021/12/25 02:50:23;;;;;;;0.50;0.50;;;-1.00;99.90;-2.50;99853.00;;;;5040221;27;82729;-69
2021/12/25 02:52:49;;;;;;;0.40;0.40;;;-2.20;99.90;-2.60;99872.00;;;;5038647;27;85934;-68
2021/12/25 02:55:15;;;;;;;0.17;0.17;;;-2.10;99.90;-2.60;99877.00;;;;5031977;27;82924;-70
2021/12/25 02:57:41;;;;;;;0.30;0.30;;;-2.20;99.90;-2.60;99891.00;;;;5038338;27;94297;-70
2021/12/25 03:00:08;;;;;;;0.47;0.30;;;-2.30;99.90;-2.70;99890.00;;;;5039602;27;82207;-70
2021/12/25 03:02:35;;;;;;;0.43;0.40;;;-2.30;99.90;-2.70;99889.00;;;;5021195;27;83030;-69
2021/12/25 03:05:01;;;;;;;0.37;0.37;;;-2.30;99.90;-2.70;99900.00;;;;5038662;27;98033;-68
2021/12/25 03:07:27;;;;;;;0.57;0.57;;;-2.30;99.90;-2.70;99887.00;;;;5038101;27;83440;-69
2021/12/25 03:09:53;;;;;;;1.43;0.70;;;-2.30;99.90;-2.70;99885.00;;;;5038186;27;109020;-69
2021/12/25 03:12:28;;;;;;;0.93;0.67;;;-2.40;99.90;-2.70;99883.00;;;;5058066;27;83948;-70
2021/12/25 03:15:13;;;;;;;0.63;0.63;;;-2.30;99.90;-2.70;99873.00;;;;5049788;27;84316;-70
2021/12/25 03:17:39;;;;;;;4.70;0.50;;;-2.40;99.90;-2.80;99885.00;;;;5056802;27;83477;-70
2021/12/25 03:20:08;;;;;;;1.13;0.53;;;-2.30;99.90;-2.80;99884.00;;;;5021474;27;82610;-70
2021/12/25 03:22:34;;;;;;;1.20;0.40;;;-2.40;99.90;-2.80;99882.00;;;;5024628;27;83258;-70
2021/12/25 03:24:59;;;;;;;0.40;0.30;;;-2.40;99.90;-2.80;99890.00;;;;5051103;27;83164;-70
2021/12/25 03:27:26;;;;;;;0.47;0.47;;;-2.40;99.90;-2.80;99895.00;;;;5056079;27;112504;-70
2021/12/25 03:29:52;;;;;;;0.43;0.43;;;-2.40;99.90;-2.80;99891.00;;;;5026962;27;82670;-69
2021/12/25 03:32:18;;;;;;;0.70;0.40;;;-2.50;99.90;-2.80;99893.00;;;;5019594;27;83737;-69
2021/12/25 03:34:44;;;;;;;1.20;0.70;;;-2.50;99.90;-2.70;99904.00;;;;5041874;27;82958;-70
2021/12/25 03:37:10;;;;;;;0.47;0.47;;;-2.40;99.90;-2.70;99886.00;;;;5057854;27;82629;-71
2021/12/25 03:39:35;;;;;;;0.53;0.53;;;-2.40;99.90;-2.70;99895.00;;;;5042580;27;108863;-71
2021/12/25 03:42:01;;;;;;;3.10;0.70;;;-2.30;99.90;-2.70;99894.00;;;;5038219;27;90119;-71
2021/12/25 03:44:28;;;;;;;2.53;0.83;;;-2.30;99.90;-2.70;99899.00;;;;5039591;27;82879;-71
2021/12/25 03:47:00;;;;;;;0.70;0.70;;;-2.40;99.90;-2.80;99890.00;;;;5061328;27;82513;-72
2021/12/25 03:49:45;;;;;;;1.37;0.57;;;-2.30;99.90;-2.70;99896.00;;;;5060725;27;82257;-72
2021/12/25 03:57:52;;;;;;;0.20;0.20;;;-2.30;99.90;-2.80;99907.00;;;;5059208;27;83425;-71
2021/12/25 04:00:27;;;;;;;0.50;0.40;;;-2.40;99.90;-2.80;99902.00;;;;5048804;27;82539;-71
2021/12/25 04:02:57;;;;;;;1.40;0.70;;;-2.30;99.90;-2.80;99907.00;;;;5061270;27;83094;-69
2021/12/25 04:05:28;;;;;;;2.00;0.67;;;-2.40;99.90;-2.80;99910.00;;;;5019083;27;82631;-69
2021/12/25 04:10:19;;;;;;;0.57;0.57;;;-2.40;99.90;-2.90;99910.00;;;;5037758;27;96935;-71
2021/12/25 04:12:45;;;;;;;0.97;0.70;;;-2.40;99.90;-2.90;99912.00;;;;5038702;27;108859;-69
2021/12/25 04:15:10;;;;;;;0.20;0.20;;;-2.50;99.90;-2.90;99919.00;;;;5040915;27;112643;-71
2021/12/25 04:17:36;;;;;;;0.77;0.43;;;-2.50;99.90;-2.90;99920.00;;;;5040379;27;109860;-70
2021/12/25 04:20:04;;;;;;;1.83;0.50;;;-2.50;99.90;-2.90;99928.00;;;;5040417;27;107952;-70
2021/12/25 04:22:39;;;;;;;0.40;0.40;;;-2.50;99.90;-3.00;99926.00;;;;5040523;27;84134;-71
2021/12/25 04:25:04;;;;;;;1.23;0.60;;;-2.50;99.90;-3.00;99920.00;;;;5047277;27;84333;-71
2021/12/25 04:27:33;;;;;;;0.23;0.23;;;-2.60;99.90;-3.00;99923.00;;;;5061594;27;82857;-70
2021/12/25 04:30:05;;;;;;;0.30;0.30;;;-2.60;99.90;-3.10;99923.00;;;;5061392;27;83091;-69
2021/12/25 04:33:24;;;;;;;0.60;0.50;;;-2.70;99.90;-3.10;99933.00;;;;5061591;27;84224;-71
2021/12/25 05:05:29;;;;;;;0.53;0.53;;;-2.80;99.90;-3.30;99945.00;;;;5030206;27;87600;-69
2021/12/25 05:07:55;;;;;;;0.80;0.50;;;-2.90;99.90;-3.30;99955.00;;;;5035583;27;89036;-68
2021/12/25 05:10:21;;;;;;;1.33;0.57;;;-2.90;99.90;-3.30;99950.00;;;;5038173;27;87558;-71
2021/12/25 05:12:47;;;;;;;0.53;0.53;;;-2.80;99.90;-3.30;99951.00;;;;5036913;27;106815;-70
2021/12/25 05:15:12;;;;;;;0.37;0.37;;;-2.10;99.90;-3.30;99951.00;;;;5044398;27;88984;-68
2021/12/25 05:17:38;;;;;;;0.30;0.23;;;-2.90;99.90;-3.40;99958.00;;;;5032555;27;92435;-69
2021/12/25 05:20:05;;;;;;;0.70;0.60;;;-2.90;99.90;-3.40;99948.00;;;;5052705;27;87624;-69
2021/12/25 05:22:31;;;;;;;0.60;0.60;;;-2.90;99.90;-3.50;99947.00;;;;5047837;27;87672;-69
2021/12/25 05:24:57;;;;;;;0.30;0.30;;;-3.00;99.90;-3.50;99955.00;;;;5056585;27;89224;-67
2021/12/25 05:27:22;;;;;;;0.30;0.30;;;-3.20;99.90;-3.60;99953.00;;;;5050703;27;87637;-68
2021/12/25 05:29:49;;;;;;;0.40;0.30;;;-3.10;99.90;-3.60;99977.00;;;;5054740;27;109996;-68
2021/12/25 05:32:17;;;;;;;0.23;0.23;;;-3.10;99.90;-3.70;99973.00;;;;5058180;27;86816;-68
2021/12/25 05:34:43;;;;;;;0.20;0.20;;;-3.10;99.90;-3.70;99968.00;;;;5057449;27;87951;-69
2021/12/25 05:37:09;;;;;;;0.20;0.20;;;-3.20;99.90;-3.70;99963.00;;;;5049255;27;87725;-67
2021/12/25 05:39:35;;;;;;;1.47;0.63;;;-3.20;99.90;-3.80;99977.00;;;;5045741;27;111717;-67
2021/12/25 05:42:01;;;;;;;0.57;0.40;;;-3.20;99.90;-3.80;99977.00;;;;5035947;27;87995;-67
2021/12/25 05:44:27;;;;;;;0.60;0.60;;;-3.40;99.90;-3.80;99978.00;;;;5037650;27;88874;-67
2021/12/25 05:46:52;;;;;;;0.30;0.30;;;-3.30;99.90;-3.90;99978.00;;;;5029518;27;101596;-69
2021/12/25 05:49:20;;;;;;;0.13;0.13;;;-3.40;99.90;-3.90;100005.00;;;;5031848;27;110236;-67
2021/12/25 05:51:46;;;;;;;1.13;0.50;;;-3.40;99.90;-3.90;99994.00;;;;5057898;27;87596;-68
2021/12/25 05:54:12;;;;;;;0.40;0.40;;;-3.40;99.90;-4.00;99984.00;;;;5054984;27;109456;-67
2021/12/25 05:56:37;;;;;;;0.17;0.13;;;-3.50;99.90;-4.00;100007.00;;;;5048922;27;117150;-67
2021/12/25 05:59:03;;;;;;;0.33;0.33;;;-3.60;99.90;-4.00;99997.00;;;;5046422;27;108786;-67
2021/12/25 06:01:29;;;;;;;1.90;0.67;;;-3.50;99.90;-4.10;100010.00;;;;5036415;27;108702;-67
2021/12/25 06:03:56;;;;;;;0.40;0.40;;;-3.60;99.90;-4.20;100003.00;;;;5037553;27;102910;-67
2021/12/25 06:06:22;;;;;;;7.10;0.50;;;-3.60;99.90;-4.20;100015.00;;;;5028452;27;87985;-67
2021/12/25 06:08:48;;;;;;;0.20;0.20;;;-3.70;99.90;-4.30;100008.00;;;;5037233;27;87670;-68
2021/12/25 06:11:16;;;;;;;0.40;0.40;;;-3.80;99.90;-4.40;100004.00;;;;5036362;27;109069;-67
2021/12/25 06:13:48;;;;;;;0.33;0.33;;;-3.80;99.90;-4.40;100006.00;;;;5038235;27;88835;-68
2021/12/25 06:16:14;;;;;;;0.47;0.47;;;-3.90;99.90;-4.50;100008.00;;;;5034681;27;88324;-66
2021/12/25 06:18:40;;;;;;;0.53;0.37;;;-3.90;99.90;-4.60;100013.00;;;;5035853;27;109902;-68
2021/12/25 06:21:05;;;;;;;0.80;0.70;;;-4.00;99.90;-4.70;100006.00;;;;5036201;27;109336;-66
2021/12/25 06:23:31;;;;;;;0.70;0.70;;;-4.10;99.90;-4.70;100011.00;;;;5035785;27;118082;-66
2021/12/25 06:25:57;;;;;;;0.37;0.30;;;-4.10;99.90;-4.80;100022.00;;;;5030500;27;102301;-66
2021/12/25 06:28:23;;;;;;;2.43;0.60;;;-4.20;99.90;-4.80;100015.00;;;;5050444;27;88738;-66
2021/12/25 06:30:49;;;;;;;0.83;0.60;;;-4.40;99.90;-4.90;99996.00;;;;5049651;27;87778;-66
2021/12/25 06:33:15;;;;;;;1.53;1.10;;;-4.30;99.90;-5.00;99996.00;;;;5041999;27;89030;-66
2021/12/25 06:35:41;;;;;;;1.77;0.73;;;-3.80;99.90;-5.00;100005.00;;;;5031210;27;101140;-67
2021/12/25 06:38:07;;;;;;;0.93;0.87;;;-4.40;99.90;-5.00;100016.00;;;;5036135;27;87738;-67
2021/12/25 06:40:33;;;;;;;1.30;0.67;;;-4.60;99.90;-5.10;100008.00;;;;5036105;27;100886;-66
2021/12/25 06:42:59;;;;;;;0.77;0.73;;;-4.00;99.90;-5.10;100018.00;;;;5042068;27;88939;-66
2021/12/25 06:45:25;;;;;;;0.80;0.60;;;-4.70;99.90;-5.20;100024.00;;;;5049879;27;88211;-67
2021/12/25 06:47:51;;;;;;;4.00;0.70;;;-4.60;99.90;-5.20;100034.00;;;;5016032;27;88134;-66
2021/12/25 06:50:17;;;;;;;0.70;0.50;;;-4.60;99.90;-5.20;100032.00;;;;5051985;27;109011;-66
2021/12/25 06:52:45;;;;;;;0.60;0.60;;;-4.60;99.90;-5.20;100042.00;;;;5056404;27;90030;-66
2021/12/25 06:55:12;;;;;;;1.23;0.63;;;-4.60;99.90;-5.30;100039.00;;;;5049067;27;90795;-67
2021/12/25 06:57:45;;;;;;;0.93;0.57;;;-4.80;99.90;-5.30;100042.00;;;;5052569;27;87667;-66
2021/12/25 07:00:12;;;;;;;0.60;0.60;;;-4.70;99.90;-5.30;100046.00;;;;5055325;27;87688;-66
2021/12/25 07:02:38;;;;;;;1.00;0.40;;;-4.80;99.90;-5.30;100048.00;;;;5056158;27;88834;-66
2021/12/25 07:05:04;;;;;;;1.03;0.97;;;-4.80;99.90;-5.40;100062.00;;;;5033416;27;116402;-66
2021/12/25 07:07:30;;;;;;;1.70;1.03;;;-4.90;99.90;-5.40;100058.00;;;;5032209;27;87995;-66
2021/12/25 07:09:56;;;;;;;1.00;0.60;;;-4.80;99.90;-5.50;100051.00;;;;5034387;27;108811;-66
2021/12/25 07:12:24;;;;;;;1.20;1.10;;;-4.90;99.90;-5.50;100063.00;;;;5035357;27;89178;-67
2021/12/25 07:14:49;;;;;;;0.53;0.53;;;-4.80;99.90;-5.50;100061.00;;;;5036116;27;87968;-66
2021/12/25 07:17:15;;;;;;;2.03;1.17;;;-5.00;99.90;-5.50;100067.00;;;;5027904;27;109695;-66
2021/12/25 07:19:41;;;;;;;2.67;1.20;;;-4.90;99.90;-5.50;100065.00;;;;5033524;27;87963;-66
2021/12/25 07:22:07;;;;;;;1.40;1.10;;;-5.10;99.90;-5.60;100074.00;;;;5041342;27;117790;-66
2021/12/25 07:24:33;;;;;;;2.30;1.20;;;-5.10;99.90;-5.60;100079.00;;;;5047757;27;118696;-67
2021/12/25 07:27:03;;;;;;;1.20;0.97;;;-5.10;99.90;-5.60;100076.00;;;;5029124;27;91686;-66
2021/12/25 07:29:29;;;;;;;3.00;1.80;;;-5.10;99.90;-5.60;100085.00;;;;5052916;27;87848;-66
2021/12/25 07:31:54;;;;;;;3.37;1.43;;;-5.20;99.90;-5.60;100091.00;;;;5053148;27;97886;-66
2021/12/25 07:34:20;;;;;;;3.97;1.33;;;-5.00;99.90;-5.70;100078.00;;;;5050131;27;117297;-66
2021/12/25 07:36:46;;;;;;;2.90;1.47;;;-5.10;99.90;-5.70;100083.00;;;;5049268;27;110930;-66
2021/12/25 07:39:12;;;;;;;7.73;2.10;;;-5.10;99.90;-5.70;100078.00;;;;5047031;27;103345;-67
2021/12/25 07:41:37;;;;;;;10.30;1.23;;;-5.20;99.90;-5.70;100088.00;;;;5045523;27;89634;-67
2021/12/25 07:44:04;;;;;;;2.60;1.57;;;-5.20;99.90;-5.70;100090.00;;;;5043795;27;118829;-67
2021/12/25 07:46:29;;;;;;;1.50;1.30;;;-5.10;99.90;-5.70;100090.00;;;;5053356;27;87701;-67
2021/12/25 07:48:55;;;;;;;1.67;1.43;;;-5.20;99.90;-5.70;100099.00;;;;5046435;27;87673;-67
2021/12/25 07:51:21;;;;;;;2.97;1.50;;;-5.20;99.90;-5.70;100106.00;;;;5033454;27;89185;-67
2021/12/25 07:53:51;;;;;;;5.00;1.93;;;-5.20;99.90;-5.60;100106.00;;;;5044745;27;98458;-67
2021/12/25 07:56:17;;;;;;;3.63;1.73;;;-5.20;99.90;-5.40;100109.00;;;;5049614;27;100453;-65
2021/12/25 07:58:43;;;;;;;6.90;2.27;;;-5.00;99.90;-5.20;100105.00;;;;5047342;27;86859;-67
2021/12/25 08:01:10;;;;;;;3.50;2.23;;;-4.90;99.90;-5.00;100098.00;;;;5051661;27;116276;-66
2021/12/25 08:03:36;;;;;;;2.77;2.03;;;-4.60;99.90;-4.80;100106.00;;;;5040530;27;88102;-67
2021/12/25 08:06:03;;;;;;;5.43;3.00;;;-4.40;99.90;-4.60;100097.00;;;;5011112;27;88984;-67
2021/12/25 08:08:29;;;;;;;2.23;2.13;;;-4.10;99.90;-4.30;100101.00;;;;5012980;27;88019;-65
2021/12/25 08:10:56;;;;;;;10.20;7.07;;;-4.00;99.90;-4.10;100099.00;;;;5049320;27;88950;-65
2021/12/25 08:13:22;;;;;;;26.70;15.50;;;-3.70;99.90;-3.90;100096.00;;;;5038462;27;88334;-65
2021/12/25 08:15:48;;;;;;;129.70;76.93;;;-3.50;99.90;-3.60;100094.00;;;;5047120;27;87750;-66
2021/12/25 08:18:14;;;;;;;92.20;53.33;;;-3.30;99.90;-3.40;100094.00;;;;5050586;27;109855;-67
2021/12/25 08:20:41;;;;;;;43.83;30.27;;;-3.10;99.90;-3.10;100107.00;;;;5049859;27;104572;-66
2021/12/25 08:23:07;;;;;;;25.10;16.23;;;-2.80;99.90;-2.90;100086.00;;;;5052435;27;87705;-65
2021/12/25 08:25:34;;;;;;;73.33;45.57;;;-2.50;99.90;-2.70;100099.00;;;;5050039;27;87940;-67
2021/12/25 08:28:00;;;;;;;30.97;19.13;;;-1.60;99.90;-2.60;100095.00;;;;5050369;27;102863;-66
2021/12/25 08:30:27;;;;;;;15.53;11.03;;;-2.20;99.90;-2.40;100101.00;;;;5050698;27;103149;-66
2021/12/25 08:32:57;;;;;;;12.77;11.43;;;-2.10;99.90;-2.30;100101.00;;;;5046290;27;89953;-66
2021/12/25 08:35:25;;;;;;;6.63;6.00;;;-1.90;99.90;-2.10;100104.00;;;;5043208;27;87907;-67
2021/12/25 08:37:52;;;;;;;2.10;1.73;;;-1.80;99.90;-2.00;100113.00;;;;5055864;27;87860;-67
2021/12/25 08:40:18;;;;;;;4.23;3.93;;;-1.60;99.90;-1.80;100114.00;;;;5023833;27;88662;-66
2021/12/25 08:42:48;;;;;;;3.13;2.40;;;-1.50;99.90;-1.70;100124.00;;;;5040866;27;88602;-68
2021/12/25 08:45:41;;;;;;;5.10;4.43;;;-1.30;99.90;-1.50;100124.00;;;;5050375;27;87679;-66
2021/12/25 08:48:18;;;;;;;3.10;2.57;;;-1.20;99.90;-1.40;100130.00;;;;5046033;27;87026;-67
2021/12/25 08:50:49;;;;;;;3.73;2.07;;;-0.90;99.90;-1.10;100126.00;;;;5044765;27;89478;-67
2021/12/25 08:53:18;;;;;;;3.33;2.33;;;-0.80;99.90;-1.00;100126.00;;;;5055481;27;88372;-67
2021/12/25 08:55:44;;;;;;;15.33;13.53;;;-0.70;99.90;-0.70;100116.00;;;;5010864;27;88989;-68
2021/12/25 08:58:10;;;;;;;5.80;4.93;;;-0.50;99.90;-0.50;100136.00;;;;5028297;27;87970;-69
2021/12/25 09:00:36;;;;;;;2.60;2.37;;;-0.20;99.90;-0.20;100130.00;;;;5042741;27;88301;-69
2021/12/25 09:03:02;;;;;;;3.60;2.47;;;1.10;99.90;0.00;100132.00;;;;5048733;27;88695;-69
2021/12/25 09:05:27;;;;;;;3.00;2.10;;;1.10;99.90;0.30;100136.00;;;;5048147;27;87901;-68
2021/12/25 09:07:53;;;;;;;2.40;2.20;;;0.50;99.90;0.50;100136.00;;;;5044642;27;109188;-66
2021/12/25 09:10:19;;;;;;;5.80;1.00;;;1.10;99.90;0.70;100140.00;;;;5052565;27;89068;-67
2021/12/25 09:12:46;;;;;;;2.43;1.80;;;0.90;99.90;0.80;100149.00;;;;5055111;27;87847;-67
2021/12/25 09:15:12;;;;;;;4.13;1.43;;;2.10;99.90;1.00;100157.00;;;;5053913;27;87673;-67
2021/12/25 09:17:39;;;;;;;2.53;0.97;;;1.30;99.90;1.10;100157.00;;;;5050383;27;87669;-69
2021/12/25 09:20:07;;;;;;;13.93;7.67;;;1.30;99.90;1.30;100146.00;;;;5054116;27;89348;-66
2021/12/25 09:22:33;;;;;;;140.87;78.30;;;1.50;99.90;1.30;100154.00;;;;5054349;27;89002;-68
2021/12/25 09:24:59;;;;;;;19.37;10.73;;;1.50;99.90;1.10;100157.00;;;;5043723;27;87818;-69
2021/12/25 09:27:25;;;;;;;15.23;7.93;;;1.40;99.90;0.80;100160.00;;;;5035401;27;87725;-67
2021/12/25 09:29:50;;;;;;;11.50;9.03;;;1.30;99.90;0.60;100159.00;;;;5049024;27;88568;-68
2021/12/25 09:32:16;;;;;;;7.07;4.53;;;1.20;99.90;0.50;100166.00;;;;5045066;27;118428;-68
2021/12/25 09:34:42;;;;;;;2.90;1.37;;;1.00;99.90;0.50;100158.00;;;;5047597;27;87783;-67
2021/12/25 09:37:07;;;;;;;2.97;2.43;;;1.40;99.90;0.50;100159.00;;;;5053983;27;107922;-66
2021/12/25 09:39:34;;;;;;;1.37;1.27;;;1.30;99.90;0.60;100156.00;;;;5036594;27;100849;-67
2021/12/25 09:41:59;;;;;;;2.20;2.10;;;1.50;99.90;0.90;100153.00;;;;5013757;27;89561;-67
2021/12/25 09:44:26;;;;;;;3.17;2.53;;;1.30;99.90;1.10;100155.00;;;;5042507;27;89004;-66
2021/12/25 09:46:52;;;;;;;4.67;4.27;;;1.20;99.90;1.40;100160.00;;;;5047696;27;87802;-66
2021/12/25 09:49:17;;;;;;;1.67;1.57;;;1.60;99.90;1.50;100161.00;;;;5045806;27;87853;-68
2021/12/25 09:51:43;;;;;;;0.83;0.83;;;2.00;99.90;1.70;100157.00;;;;5031120;27;115598;-66
2021/12/25 09:54:14;;;;;;;23.73;14.87;;;2.50;99.90;2.10;100169.00;;;;5042757;27;110942;-67
2021/12/25 09:56:42;;;;;;;14.63;13.10;;;2.10;99.90;2.20;100165.00;;;;5053736;27;87798;-67
2021/12/25 09:59:12;;;;;;;8.47;2.27;;;2.40;99.90;2.30;100169.00;;;;5023560;27;88974;-67
2021/12/25 10:01:47;;;;;;;3.80;3.50;;;3.00;98.80;2.20;100173.00;;;;5051685;27;88187;-66
2021/12/25 10:04:40;;;;;;;3.10;1.73;;;2.50;97.60;2.10;100180.00;;;;5049576;27;88098;-68
2021/12/25 10:07:29;;;;;;;1.80;1.70;;;2.40;95.10;1.80;100177.00;;;;5035237;27;87651;-68
2021/12/25 10:09:58;;;;;;;4.97;1.50;;;2.20;91.90;1.60;100171.00;;;;5027619;27;88907;-67
2021/12/25 10:12:30;;;;;;;1.90;1.80;;;2.00;91.50;1.30;100166.00;;;;5053459;27;90176;-68
2021/12/25 10:14:56;;;;;;;2.63;2.07;;;2.20;93.40;1.20;100173.00;;;;5035890;27;88150;-67
2021/12/25 10:17:29;;;;;;;2.33;2.00;;;1.40;95.90;1.10;100168.00;;;;5053991;27;87992;-69
2021/12/25 10:20:11;;;;;;;2.60;2.10;;;1.40;96.30;1.00;100172.00;;;;5044426;27;88092;-68
2021/12/25 10:23:04;;;;;;;5.47;3.70;;;1.30;97.60;0.80;100167.00;;;;5054366;27;87623;-69
2021/12/25 10:25:38;;;;;;;7.80;4.13;;;1.20;96.10;0.70;100167.00;;;;5048438;27;87742;-67
2021/12/25 10:28:07;;;;;;;3.17;1.53;;;1.60;97.50;0.60;100177.00;;;;5054881;27;87033;-69
2021/12/25 10:30:59;;;;;;;2.03;1.83;;;1.80;97.10;0.30;100176.00;;;;5043876;27;88231;-67
2021/12/25 10:33:44;;;;;;;1.00;1.00;;;0.70;96.00;0.20;100177.00;;;;5013691;27;89419;-68
2021/12/25 10:36:33;;;;;;;8.00;6.07;;;0.60;95.60;0.30;100169.00;;;;5045448;27;88626;-67
2021/12/25 10:39:11;;;;;;;11.63;9.10;;;1.40;97.80;0.50;100175.00;;;;5026403;27;87897;-67
2021/12/25 10:41:52;;;;;;;1.30;1.20;;;0.50;98.40;0.80;100168.00;;;;5052878;27;89923;-67
2021/12/25 10:44:34;;;;;;;3.20;2.80;;;1.70;97.20;1.00;100164.00;;;;5021682;27;87843;-68
2021/12/25 10:47:08;;;;;;;23.50;17.13;;;1.10;97.30;1.20;100174.00;;;;5021026;27;87793;-66
2021/12/25 10:50:13;;;;;;;7.37;2.60;;;1.30;98.10;1.40;100166.00;;;;5050913;27;87912;-69
2021/12/25 10:52:45;;;;;;;4.00;2.77;;;1.50;96.00;1.50;100171.00;;;;5020801;27;87886;-68
2021/12/25 10:55:24;;;;;;;3.03;1.80;;;1.60;93.90;1.60;100178.00;;;;5018986;27;88647;-67
2021/12/25 10:57:56;;;;;;;16.70;14.33;;;1.70;94.20;1.50;100183.00;;;;5045379;27;87705;-69
2021/12/25 11:00:22;;;;;;;3.20;2.87;;;1.70;93.70;1.40;100190.00;;;;5050990;27;93943;-70
2021/12/25 11:02:54;;;;;;;2.20;1.50;;;1.70;93.20;1.20;100181.00;;;;5043067;27;95338;-69
2021/12/25 11:05:20;;;;;;;1.77;1.30;;;1.40;90.00;0.80;100184.00;;;;5014995;27;105377;-68
2021/12/25 11:07:48;;;;;;;4.40;3.53;;;1.20;88.90;0.70;100181.00;;;;5049503;27;88047;-68
2021/12/25 11:10:19;;;;;;;2.77;2.00;;;1.00;91.70;0.50;100180.00;;;;5053158;27;92911;-69
2021/12/25 11:12:46;;;;;;;2.53;1.77;;;1.60;92.30;0.40;100177.00;;;;5042465;27;116795;-71
2021/12/25 11:15:14;;;;;;;2.80;2.37;;;1.30;94.00;0.40;100176.00;;;;5053824;27;87854;-70
2021/12/25 11:17:43;;;;;;;2.40;2.20;;;0.60;94.60;0.30;100177.00;;;;5029889;27;87863;-70
2021/12/25 11:20:18;;;;;;;6.50;3.33;;;0.50;95.20;0.20;100176.00;;;;5042968;27;86945;-69
2021/12/25 11:22:55;;;;;;;4.77;2.43;;;0.40;95.60;0.20;100181.00;;;;5047688;27;88177;-70
2021/12/25 11:25:27;;;;;;;3.90;3.03;;;0.50;96.00;0.10;100176.00;;;;5015476;27;93681;-67
2021/12/25 11:27:54;;;;;;;6.37;4.83;;;0.90;95.90;0.00;100180.00;;;;5016063;27;88912;-68
2021/12/25 11:30:23;;;;;;;2.20;1.50;;;0.20;95.40;-0.20;100171.00;;;;5052995;27;96350;-68
2021/12/25 11:32:52;;;;;;;2.63;2.13;;;0.10;95.00;-0.30;100180.00;;;;5034082;27;88217;-69
2021/12/25 11:35:19;;;;;;;5.07;2.37;;;0.00;95.60;-0.40;100169.00;;;;5043730;27;88046;-70
2021/12/25 11:37:47;;;;;;;3.13;2.60;;;-0.10;95.80;-0.40;100168.00;;;;5045415;27;88000;-70
2021/12/25 11:40:17;;;;;;;8.73;4.97;;;0.80;96.50;-0.50;100186.00;;;;5050865;27;88058;-71
2021/12/25 11:42:47;;;;;;;18.97;11.70;;;-0.30;96.90;-0.50;100166.00;;;;5033885;27;88441;-67
2021/12/25 11:45:36;;;;;;;4.53;3.80;;;-0.20;97.90;-0.60;100177.00;;;;5047197;27;97269;-69
2021/12/25 11:48:20;;;;;;;3.90;1.93;;;-0.30;98.40;-0.70;100172.00;;;;5033872;27;87687;-69
2021/12/25 11:50:52;;;;;;;7.47;4.40;;;-0.40;99.00;-0.70;100165.00;;;;5018866;27;87771;-68
2021/12/25 11:53:29;;;;;;;12.80;8.13;;;0.40;99.50;-0.80;100170.00;;;;5051761;27;89124;-68
2021/12/25 11:58:52;;;;;;;3.10;1.83;;;-0.50;99.90;-0.90;100165.00;;;;5031089;27;88127;-69
2021/12/25 12:01:35;;;;;;;3.17;1.80;;;-0.60;99.90;-1.00;100172.00;;;;5027122;27;87664;-71
2021/12/25 12:04:06;;;;;;;195.80;91.70;;;-0.70;99.90;-1.10;100176.00;;;;5043583;27;88262;-69
2021/12/25 12:06:47;;;;;;;45.80;25.47;;;-0.80;99.90;-1.20;100183.00;;;;5022884;27;88385;-68
2021/12/25 12:09:46;;;;;;;20.27;12.87;;;-0.90;99.90;-1.30;100167.00;;;;5048563;27;87845;-68